sensor_id;sensor_type;location;lat;lon;timestamp;P1;durP1;ratioP1;P2;durP2;ratioP2
43114;SDS011;28727;50.068;14.452;2023-07-20T00:01:30;704.75;;;650.92;;
43114;SDS011;28727;50.068;14.452;2023-07-20T00:04:02;709.55;;;655.35;;
43114;SDS011;28727;50.068;14.452;2023-07-20T00:06:35;702.65;;;649.10;;
43114;SDS011;28727;50.068;14.452;2023-07-20T00:09:09;699.80;;;646.30;;
43114;SDS011;28727;50.068;14.452;2023-07-20T00:11:47;703.63;;;650.08;;
43114;SDS011;28727;50.068;14.452;2023-07-20T00:14:22;700.78;;;647.05;;
43114;SDS011;28727;50.068;14.452;2023-07-20T00:16:55;707.67;;;653.85;;
43114;SDS011;28727;50.068;14.452;2023-07-20T00:19:30;707.90;;;653.97;;
43114;SDS011;28727;50.068;14.452;2023-07-20T00:22:03;705.72;;;652.10;;
43114;SDS011;28727;50.068;14.452;2023-07-20T00:24:36;710.75;;;656.03;;
43114;SDS011;28727;50.068;14.452;2023-07-20T00:27:08;704.20;;;650.47;;
43114;SDS011;28727;50.068;14.452;2023-07-20T00:29:40;704.78;;;650.88;;
43114;SDS011;28727;50.068;14.452;2023-07-20T00:32:13;713.47;;;658.88;;
43114;SDS011;28727;50.068;14.452;2023-07-20T00:34:45;702.45;;;648.72;;
43114;SDS011;28727;50.068;14.452;2023-07-20T00:37:18;703.33;;;649.88;;
43114;SDS011;28727;50.068;14.452;2023-07-20T00:39:55;699.25;;;645.80;;
43114;SDS011;28727;50.068;14.452;2023-07-20T00:42:29;704.38;;;650.45;;
43114;SDS011;28727;50.068;14.452;2023-07-20T00:45:06;704.88;;;650.85;;
43114;SDS011;28727;50.068;14.452;2023-07-20T00:47:38;700.40;;;646.70;;
43114;SDS011;28727;50.068;14.452;2023-07-20T00:50:11;701.88;;;648.20;;
43114;SDS011;28727;50.068;14.452;2023-07-20T00:52:43;704.33;;;650.63;;
43114;SDS011;28727;50.068;14.452;2023-07-20T00:55:16;701.95;;;648.70;;
43114;SDS011;28727;50.068;14.452;2023-07-20T00:57:47;699.42;;;645.97;;
43114;SDS011;28727;50.068;14.452;2023-07-20T01:00:20;702.33;;;648.53;;
43114;SDS011;28727;50.068;14.452;2023-07-20T01:02:54;705.15;;;651.55;;
43114;SDS011;28727;50.068;14.452;2023-07-20T01:05:31;705.75;;;651.42;;
43114;SDS011;28727;50.068;14.452;2023-07-20T01:08:17;694.58;;;641.67;;
43114;SDS011;28727;50.068;14.452;2023-07-20T01:10:59;700.95;;;647.38;;
43114;SDS011;28727;50.068;14.452;2023-07-20T01:13:39;696.75;;;643.67;;
43114;SDS011;28727;50.068;14.452;2023-07-20T01:18:49;700.42;;;646.88;;
43114;SDS011;28727;50.068;14.452;2023-07-20T01:21:28;698.08;;;645.08;;
43114;SDS011;28727;50.068;14.452;2023-07-20T01:24:19;700.75;;;647.65;;
43114;SDS011;28727;50.068;14.452;2023-07-20T01:32:40;689.78;;;637.20;;
43114;SDS011;28727;50.068;14.452;2023-07-20T01:35:16;699.72;;;646.03;;
43114;SDS011;28727;50.068;14.452;2023-07-20T01:37:52;699.08;;;645.58;;
43114;SDS011;28727;50.068;14.452;2023-07-20T01:40:27;702.60;;;648.85;;
43114;SDS011;28727;50.068;14.452;2023-07-20T01:43:02;695.85;;;642.58;;
43114;SDS011;28727;50.068;14.452;2023-07-20T01:45:34;692.95;;;639.83;;
43114;SDS011;28727;50.068;14.452;2023-07-20T01:48:11;700.88;;;647.17;;
43114;SDS011;28727;50.068;14.452;2023-07-20T01:50:49;696.83;;;643.38;;
43114;SDS011;28727;50.068;14.452;2023-07-20T01:53:21;703.95;;;650.05;;
43114;SDS011;28727;50.068;14.452;2023-07-20T01:55:55;699.00;;;645.78;;
43114;SDS011;28727;50.068;14.452;2023-07-20T01:58:28;708.88;;;654.75;;
43114;SDS011;28727;50.068;14.452;2023-07-20T02:01:03;695.15;;;642.13;;
43114;SDS011;28727;50.068;14.452;2023-07-20T02:03:35;700.67;;;647.38;;
43114;SDS011;28727;50.068;14.452;2023-07-20T02:06:14;699.50;;;645.75;;
43114;SDS011;28727;50.068;14.452;2023-07-20T02:08:45;696.40;;;642.72;;
43114;SDS011;28727;50.068;14.452;2023-07-20T02:11:17;695.03;;;641.85;;
43114;SDS011;28727;50.068;14.452;2023-07-20T02:13:49;700.42;;;646.50;;
43114;SDS011;28727;50.068;14.452;2023-07-20T02:16:21;691.70;;;638.67;;
43114;SDS011;28727;50.068;14.452;2023-07-20T02:18:53;690.13;;;637.15;;
43114;SDS011;28727;50.068;14.452;2023-07-20T02:21:28;691.03;;;638.42;;
43114;SDS011;28727;50.068;14.452;2023-07-20T02:24:00;696.30;;;642.92;;
43114;SDS011;28727;50.068;14.452;2023-07-20T02:26:32;699.25;;;645.60;;
43114;SDS011;28727;50.068;14.452;2023-07-20T02:29:03;689.00;;;636.38;;
43114;SDS011;28727;50.068;14.452;2023-07-20T02:31:36;698.28;;;645.22;;
43114;SDS011;28727;50.068;14.452;2023-07-20T02:34:11;691.13;;;638.20;;
43114;SDS011;28727;50.068;14.452;2023-07-20T02:39:17;690.03;;;637.20;;
43114;SDS011;28727;50.068;14.452;2023-07-20T02:41:49;693.90;;;640.70;;
43114;SDS011;28727;50.068;14.452;2023-07-20T02:44:22;688.00;;;634.75;;
43114;SDS011;28727;50.068;14.452;2023-07-20T02:46:54;691.17;;;638.38;;
43114;SDS011;28727;50.068;14.452;2023-07-20T02:49:26;698.03;;;644.63;;
43114;SDS011;28727;50.068;14.452;2023-07-20T02:52:02;686.33;;;634.60;;
43114;SDS011;28727;50.068;14.452;2023-07-20T02:54:34;684.40;;;632.95;;
43114;SDS011;28727;50.068;14.452;2023-07-20T02:57:06;680.90;;;629.58;;
43114;SDS011;28727;50.068;14.452;2023-07-20T02:59:41;689.58;;;637.80;;
43114;SDS011;28727;50.068;14.452;2023-07-20T03:02:16;696.70;;;643.80;;
43114;SDS011;28727;50.068;14.452;2023-07-20T03:04:48;64.88;;;59.13;;
43114;SDS011;28727;50.068;14.452;2023-07-20T03:07:23;6.07;;;4.07;;
43114;SDS011;28727;50.068;14.452;2023-07-20T03:09:57;6.57;;;4.50;;
43114;SDS011;28727;50.068;14.452;2023-07-20T03:15:02;9.52;;;4.43;;
43114;SDS011;28727;50.068;14.452;2023-07-20T03:17:40;6.18;;;3.70;;
43114;SDS011;28727;50.068;14.452;2023-07-20T03:20:20;6.28;;;3.65;;
43114;SDS011;28727;50.068;14.452;2023-07-20T03:22:59;5.97;;;4.03;;
43114;SDS011;28727;50.068;14.452;2023-07-20T03:25:34;7.00;;;3.83;;
43114;SDS011;28727;50.068;14.452;2023-07-20T03:28:14;7.10;;;4.65;;
43114;SDS011;28727;50.068;14.452;2023-07-20T03:30:54;8.00;;;3.42;;
43114;SDS011;28727;50.068;14.452;2023-07-20T03:33:27;6.40;;;3.78;;
43114;SDS011;28727;50.068;14.452;2023-07-20T03:36:02;7.30;;;4.20;;
43114;SDS011;28727;50.068;14.452;2023-07-20T03:38:37;5.70;;;3.10;;
43114;SDS011;28727;50.068;14.452;2023-07-20T03:41:17;7.55;;;4.10;;
43114;SDS011;28727;50.068;14.452;2023-07-20T03:43:53;6.60;;;3.40;;
43114;SDS011;28727;50.068;14.452;2023-07-20T03:46:29;7.38;;;4.45;;
43114;SDS011;28727;50.068;14.452;2023-07-20T03:49:02;4.75;;;3.45;;
43114;SDS011;28727;50.068;14.452;2023-07-20T03:51:34;6.55;;;3.53;;
43114;SDS011;28727;50.068;14.452;2023-07-20T03:54:06;8.45;;;5.00;;
43114;SDS011;28727;50.068;14.452;2023-07-20T03:56:42;5.50;;;3.95;;
43114;SDS011;28727;50.068;14.452;2023-07-20T03:59:17;13.13;;;10.45;;
43114;SDS011;28727;50.068;14.452;2023-07-20T04:01:49;7.95;;;6.72;;
43114;SDS011;28727;50.068;14.452;2023-07-20T04:04:21;7.15;;;4.07;;
43114;SDS011;28727;50.068;14.452;2023-07-20T04:06:52;9.38;;;5.85;;
43114;SDS011;28727;50.068;14.452;2023-07-20T04:09:51;9.18;;;6.72;;
43114;SDS011;28727;50.068;14.452;2023-07-20T04:12:23;7.80;;;5.95;;
43114;SDS011;28727;50.068;14.452;2023-07-20T04:14:55;8.13;;;4.90;;
43114;SDS011;28727;50.068;14.452;2023-07-20T04:17:53;5.45;;;4.25;;
43114;SDS011;28727;50.068;14.452;2023-07-20T04:20:27;6.30;;;4.23;;
43114;SDS011;28727;50.068;14.452;2023-07-20T04:22:58;8.65;;;6.03;;
43114;SDS011;28727;50.068;14.452;2023-07-20T04:25:30;6.10;;;4.68;;
43114;SDS011;28727;50.068;14.452;2023-07-20T04:28:10;13.07;;;7.70;;
43114;SDS011;28727;50.068;14.452;2023-07-20T04:30:48;11.18;;;5.50;;
43114;SDS011;28727;50.068;14.452;2023-07-20T04:33:27;7.75;;;4.20;;
43114;SDS011;28727;50.068;14.452;2023-07-20T04:36:00;8.00;;;5.72;;
43114;SDS011;28727;50.068;14.452;2023-07-20T04:38:37;8.68;;;5.53;;
43114;SDS011;28727;50.068;14.452;2023-07-20T04:41:22;10.13;;;5.82;;
43114;SDS011;28727;50.068;14.452;2023-07-20T04:43:58;6.88;;;4.88;;
43114;SDS011;28727;50.068;14.452;2023-07-20T04:46:33;7.03;;;4.03;;
43114;SDS011;28727;50.068;14.452;2023-07-20T04:49:33;6.22;;;4.07;;
43114;SDS011;28727;50.068;14.452;2023-07-20T04:52:05;9.43;;;6.90;;
43114;SDS011;28727;50.068;14.452;2023-07-20T04:54:38;9.25;;;6.57;;
43114;SDS011;28727;50.068;14.452;2023-07-20T04:57:10;9.15;;;5.18;;
43114;SDS011;28727;50.068;14.452;2023-07-20T04:59:51;8.23;;;3.88;;
43114;SDS011;28727;50.068;14.452;2023-07-20T05:02:23;8.48;;;5.18;;
43114;SDS011;28727;50.068;14.452;2023-07-20T05:04:55;8.48;;;6.32;;
43114;SDS011;28727;50.068;14.452;2023-07-20T05:07:27;10.77;;;7.25;;
43114;SDS011;28727;50.068;14.452;2023-07-20T05:09:59;8.65;;;4.65;;
43114;SDS011;28727;50.068;14.452;2023-07-20T05:12:33;9.23;;;6.10;;
43114;SDS011;28727;50.068;14.452;2023-07-20T05:15:05;11.30;;;8.52;;
43114;SDS011;28727;50.068;14.452;2023-07-20T05:17:43;9.38;;;7.15;;
43114;SDS011;28727;50.068;14.452;2023-07-20T05:20:15;8.52;;;5.40;;
43114;SDS011;28727;50.068;14.452;2023-07-20T05:22:47;6.80;;;4.65;;
43114;SDS011;28727;50.068;14.452;2023-07-20T05:25:21;11.32;;;7.97;;
43114;SDS011;28727;50.068;14.452;2023-07-20T05:27:54;9.25;;;7.35;;
43114;SDS011;28727;50.068;14.452;2023-07-20T05:30:26;9.52;;;6.47;;
43114;SDS011;28727;50.068;14.452;2023-07-20T05:33:00;11.43;;;8.68;;
43114;SDS011;28727;50.068;14.452;2023-07-20T05:35:35;11.43;;;7.65;;
43114;SDS011;28727;50.068;14.452;2023-07-20T05:38:08;10.00;;;6.70;;
43114;SDS011;28727;50.068;14.452;2023-07-20T05:40:40;11.27;;;6.57;;
43114;SDS011;28727;50.068;14.452;2023-07-20T05:43:42;11.57;;;7.45;;
43114;SDS011;28727;50.068;14.452;2023-07-20T05:46:14;13.77;;;10.80;;
43114;SDS011;28727;50.068;14.452;2023-07-20T05:51:22;16.30;;;11.80;;
43114;SDS011;28727;50.068;14.452;2023-07-20T05:53:53;11.90;;;10.82;;
43114;SDS011;28727;50.068;14.452;2023-07-20T05:56:27;16.77;;;9.48;;
43114;SDS011;28727;50.068;14.452;2023-07-20T05:59:01;10.73;;;9.57;;
43114;SDS011;28727;50.068;14.452;2023-07-20T06:01:32;12.23;;;10.82;;
43114;SDS011;28727;50.068;14.452;2023-07-20T06:04:06;15.80;;;13.77;;
43114;SDS011;28727;50.068;14.452;2023-07-20T06:06:37;13.63;;;11.20;;
43114;SDS011;28727;50.068;14.452;2023-07-20T06:09:11;13.10;;;10.43;;
43114;SDS011;28727;50.068;14.452;2023-07-20T06:11:52;14.85;;;12.15;;
43114;SDS011;28727;50.068;14.452;2023-07-20T06:14:25;13.02;;;11.73;;
43114;SDS011;28727;50.068;14.452;2023-07-20T06:17:01;18.25;;;15.75;;
43114;SDS011;28727;50.068;14.452;2023-07-20T06:19:34;18.33;;;13.05;;
43114;SDS011;28727;50.068;14.452;2023-07-20T06:22:05;16.52;;;14.77;;
43114;SDS011;28727;50.068;14.452;2023-07-20T06:24:37;19.83;;;16.17;;
43114;SDS011;28727;50.068;14.452;2023-07-20T06:27:09;16.20;;;14.68;;
43114;SDS011;28727;50.068;14.452;2023-07-20T06:29:41;21.65;;;19.60;;
43114;SDS011;28727;50.068;14.452;2023-07-20T06:32:16;20.15;;;18.38;;
43114;SDS011;28727;50.068;14.452;2023-07-20T06:34:48;19.25;;;17.45;;
43114;SDS011;28727;50.068;14.452;2023-07-20T06:37:23;17.85;;;16.35;;
43114;SDS011;28727;50.068;14.452;2023-07-20T06:40:06;18.70;;;16.95;;
43114;SDS011;28727;50.068;14.452;2023-07-20T06:42:45;22.95;;;20.95;;
43114;SDS011;28727;50.068;14.452;2023-07-20T06:45:22;20.95;;;19.13;;
43114;SDS011;28727;50.068;14.452;2023-07-20T06:47:54;16.50;;;15.13;;
43114;SDS011;28727;50.068;14.452;2023-07-20T06:50:27;21.67;;;19.63;;
43114;SDS011;28727;50.068;14.452;2023-07-20T06:53:08;19.17;;;17.27;;
43114;SDS011;28727;50.068;14.452;2023-07-20T06:55:41;22.15;;;20.20;;
43114;SDS011;28727;50.068;14.452;2023-07-20T06:58:13;22.60;;;20.63;;
43114;SDS011;28727;50.068;14.452;2023-07-20T07:00:46;22.52;;;20.67;;
43114;SDS011;28727;50.068;14.452;2023-07-20T07:03:21;26.17;;;23.95;;
43114;SDS011;28727;50.068;14.452;2023-07-20T07:05:59;25.85;;;23.58;;
43114;SDS011;28727;50.068;14.452;2023-07-20T07:08:31;24.85;;;22.58;;
43114;SDS011;28727;50.068;14.452;2023-07-20T07:11:03;30.63;;;28.13;;
43114;SDS011;28727;50.068;14.452;2023-07-20T07:13:35;30.25;;;27.75;;
43114;SDS011;28727;50.068;14.452;2023-07-20T07:16:07;27.50;;;24.83;;
43114;SDS011;28727;50.068;14.452;2023-07-20T07:18:40;29.85;;;27.38;;
43114;SDS011;28727;50.068;14.452;2023-07-20T07:21:12;23.30;;;21.33;;
43114;SDS011;28727;50.068;14.452;2023-07-20T07:23:47;21.98;;;20.10;;
43114;SDS011;28727;50.068;14.452;2023-07-20T07:26:19;28.73;;;26.27;;
43114;SDS011;28727;50.068;14.452;2023-07-20T07:28:51;28.83;;;26.33;;
43114;SDS011;28727;50.068;14.452;2023-07-20T07:31:24;26.15;;;23.75;;
43114;SDS011;28727;50.068;14.452;2023-07-20T07:33:57;26.60;;;24.25;;
43114;SDS011;28727;50.068;14.452;2023-07-20T07:36:33;25.45;;;23.38;;
43114;SDS011;28727;50.068;14.452;2023-07-20T07:39:05;27.33;;;25.08;;
43114;SDS011;28727;50.068;14.452;2023-07-20T07:42:00;30.75;;;28.10;;
43114;SDS011;28727;50.068;14.452;2023-07-20T07:44:35;23.83;;;21.52;;
43114;SDS011;28727;50.068;14.452;2023-07-20T07:47:07;22.73;;;20.55;;
43114;SDS011;28727;50.068;14.452;2023-07-20T07:49:42;32.30;;;29.33;;
43114;SDS011;28727;50.068;14.452;2023-07-20T07:52:18;19.50;;;17.88;;
43114;SDS011;28727;50.068;14.452;2023-07-20T07:54:50;20.83;;;19.00;;
43114;SDS011;28727;50.068;14.452;2023-07-20T07:57:21;22.58;;;20.25;;
43114;SDS011;28727;50.068;14.452;2023-07-20T07:59:56;27.77;;;25.30;;
43114;SDS011;28727;50.068;14.452;2023-07-20T08:02:28;28.42;;;25.88;;
43114;SDS011;28727;50.068;14.452;2023-07-20T08:04:59;32.33;;;29.58;;
43114;SDS011;28727;50.068;14.452;2023-07-20T08:07:41;34.28;;;31.60;;
43114;SDS011;28727;50.068;14.452;2023-07-20T08:10:17;67.35;;;61.15;;
43114;SDS011;28727;50.068;14.452;2023-07-20T08:12:48;37.03;;;34.15;;
43114;SDS011;28727;50.068;14.452;2023-07-20T08:15:20;32.70;;;29.98;;
43114;SDS011;28727;50.068;14.452;2023-07-20T08:17:52;38.05;;;34.80;;
43114;SDS011;28727;50.068;14.452;2023-07-20T08:20:25;37.40;;;34.20;;
43114;SDS011;28727;50.068;14.452;2023-07-20T08:22:59;29.88;;;27.20;;
43114;SDS011;28727;50.068;14.452;2023-07-20T08:25:41;31.23;;;28.58;;
43114;SDS011;28727;50.068;14.452;2023-07-20T08:28:25;30.58;;;28.17;;
43114;SDS011;28727;50.068;14.452;2023-07-20T08:30:58;38.92;;;35.67;;
43114;SDS011;28727;50.068;14.452;2023-07-20T08:33:34;38.05;;;34.85;;
43114;SDS011;28727;50.068;14.452;2023-07-20T08:36:06;41.42;;;37.78;;
43114;SDS011;28727;50.068;14.452;2023-07-20T08:38:50;40.30;;;37.00;;
43114;SDS011;28727;50.068;14.452;2023-07-20T08:41:25;35.97;;;33.10;;
43114;SDS011;28727;50.068;14.452;2023-07-20T08:43:59;35.70;;;32.58;;
43114;SDS011;28727;50.068;14.452;2023-07-20T08:46:32;39.90;;;36.25;;
43114;SDS011;28727;50.068;14.452;2023-07-20T08:49:09;31.23;;;28.73;;
43114;SDS011;28727;50.068;14.452;2023-07-20T08:51:42;41.85;;;38.70;;
43114;SDS011;28727;50.068;14.452;2023-07-20T08:54:16;39.47;;;36.22;;
43114;SDS011;28727;50.068;14.452;2023-07-20T08:56:52;47.83;;;43.72;;
43114;SDS011;28727;50.068;14.452;2023-07-20T08:59:25;43.67;;;39.67;;
43114;SDS011;28727;50.068;14.452;2023-07-20T09:02:05;57.35;;;52.17;;
43114;SDS011;28727;50.068;14.452;2023-07-20T09:04:50;53.15;;;48.60;;
43114;SDS011;28727;50.068;14.452;2023-07-20T09:07:24;51.33;;;47.15;;
43114;SDS011;28727;50.068;14.452;2023-07-20T09:09:57;48.75;;;44.88;;
43114;SDS011;28727;50.068;14.452;2023-07-20T09:12:30;45.17;;;41.67;;
43114;SDS011;28727;50.068;14.452;2023-07-20T09:15:04;52.75;;;48.17;;
43114;SDS011;28727;50.068;14.452;2023-07-20T09:17:38;50.15;;;46.10;;
43114;SDS011;28727;50.068;14.452;2023-07-20T09:20:17;48.75;;;44.67;;
43114;SDS011;28727;50.068;14.452;2023-07-20T09:22:54;44.35;;;40.65;;
43114;SDS011;28727;50.068;14.452;2023-07-20T09:25:27;41.97;;;38.47;;
43114;SDS011;28727;50.068;14.452;2023-07-20T09:30:36;39.67;;;36.50;;
43114;SDS011;28727;50.068;14.452;2023-07-20T09:33:18;39.85;;;36.28;;
43114;SDS011;28727;50.068;14.452;2023-07-20T09:36:01;36.78;;;33.67;;
43114;SDS011;28727;50.068;14.452;2023-07-20T09:38:58;40.13;;;36.90;;
43114;SDS011;28727;50.068;14.452;2023-07-20T09:41:40;42.50;;;39.22;;
43114;SDS011;28727;50.068;14.452;2023-07-20T09:44:19;46.67;;;42.65;;
43114;SDS011;28727;50.068;14.452;2023-07-20T09:46:54;42.65;;;39.40;;
43114;SDS011;28727;50.068;14.452;2023-07-20T09:49:30;53.75;;;49.40;;
43114;SDS011;28727;50.068;14.452;2023-07-20T09:52:22;51.80;;;47.55;;
43114;SDS011;28727;50.068;14.452;2023-07-20T09:55:18;44.95;;;41.22;;
43114;SDS011;28727;50.068;14.452;2023-07-20T09:57:52;43.22;;;39.78;;
43114;SDS011;28727;50.068;14.452;2023-07-20T10:00:25;46.22;;;42.28;;
43114;SDS011;28727;50.068;14.452;2023-07-20T10:03:05;44.20;;;40.45;;
43114;SDS011;28727;50.068;14.452;2023-07-20T10:05:39;48.08;;;44.10;;
43114;SDS011;28727;50.068;14.452;2023-07-20T10:08:14;45.08;;;41.28;;
43114;SDS011;28727;50.068;14.452;2023-07-20T10:10:55;41.78;;;37.55;;
43114;SDS011;28727;50.068;14.452;2023-07-20T10:13:32;36.05;;;33.28;;
43114;SDS011;28727;50.068;14.452;2023-07-20T10:16:10;39.35;;;36.05;;
43114;SDS011;28727;50.068;14.452;2023-07-20T10:19:07;34.90;;;32.10;;
43114;SDS011;28727;50.068;14.452;2023-07-20T10:21:51;34.63;;;31.92;;
43114;SDS011;28727;50.068;14.452;2023-07-20T10:24:29;41.45;;;38.08;;
43114;SDS011;28727;50.068;14.452;2023-07-20T10:27:03;34.67;;;31.90;;
43114;SDS011;28727;50.068;14.452;2023-07-20T10:29:36;42.20;;;38.80;;
43114;SDS011;28727;50.068;14.452;2023-07-20T10:32:09;40.67;;;37.25;;
43114;SDS011;28727;50.068;14.452;2023-07-20T10:34:49;51.45;;;46.95;;
43114;SDS011;28727;50.068;14.452;2023-07-20T10:40:33;54.08;;;49.20;;
43114;SDS011;28727;50.068;14.452;2023-07-20T10:43:09;47.67;;;43.63;;
43114;SDS011;28727;50.068;14.452;2023-07-20T10:45:47;45.88;;;42.15;;
43114;SDS011;28727;50.068;14.452;2023-07-20T10:48:25;47.05;;;43.00;;
43114;SDS011;28727;50.068;14.452;2023-07-20T10:51:11;71.75;;;51.15;;
43114;SDS011;28727;50.068;14.452;2023-07-20T10:56:49;48.88;;;44.38;;
43114;SDS011;28727;50.068;14.452;2023-07-20T11:01:59;41.70;;;37.75;;
43114;SDS011;28727;50.068;14.452;2023-07-20T11:04:39;37.42;;;34.25;;
43114;SDS011;28727;50.068;14.452;2023-07-20T11:07:15;33.67;;;30.60;;
43114;SDS011;28727;50.068;14.452;2023-07-20T11:09:50;39.78;;;35.63;;
43114;SDS011;28727;50.068;14.452;2023-07-20T11:12:27;31.00;;;28.10;;
43114;SDS011;28727;50.068;14.452;2023-07-20T11:15:01;25.63;;;23.33;;
43114;SDS011;28727;50.068;14.452;2023-07-20T11:17:33;31.33;;;28.33;;
43114;SDS011;28727;50.068;14.452;2023-07-20T11:20:07;28.42;;;25.92;;
43114;SDS011;28727;50.068;14.452;2023-07-20T11:22:47;31.65;;;29.13;;
43114;SDS011;28727;50.068;14.452;2023-07-20T11:25:20;33.35;;;30.40;;
43114;SDS011;28727;50.068;14.452;2023-07-20T11:27:52;28.60;;;26.25;;
43114;SDS011;28727;50.068;14.452;2023-07-20T11:30:32;31.73;;;29.05;;
43114;SDS011;28727;50.068;14.452;2023-07-20T11:33:06;39.08;;;35.75;;
43114;SDS011;28727;50.068;14.452;2023-07-20T11:35:44;37.55;;;34.63;;
43114;SDS011;28727;50.068;14.452;2023-07-20T11:38:23;34.25;;;31.63;;
43114;SDS011;28727;50.068;14.452;2023-07-20T11:40:58;43.97;;;40.40;;
43114;SDS011;28727;50.068;14.452;2023-07-20T11:43:33;40.80;;;37.47;;
43114;SDS011;28727;50.068;14.452;2023-07-20T11:46:05;41.88;;;38.53;;
43114;SDS011;28727;50.068;14.452;2023-07-20T11:48:40;50.75;;;46.63;;
43114;SDS011;28727;50.068;14.452;2023-07-20T11:51:15;42.53;;;38.90;;
43114;SDS011;28727;50.068;14.452;2023-07-20T11:53:51;44.53;;;40.83;;
43114;SDS011;28727;50.068;14.452;2023-07-20T11:56:24;38.97;;;35.55;;
43114;SDS011;28727;50.068;14.452;2023-07-20T11:58:57;39.28;;;36.20;;
43114;SDS011;28727;50.068;14.452;2023-07-20T12:01:37;46.45;;;42.63;;
43114;SDS011;28727;50.068;14.452;2023-07-20T12:04:12;41.75;;;38.45;;
43114;SDS011;28727;50.068;14.452;2023-07-20T12:06:45;42.83;;;39.25;;
43114;SDS011;28727;50.068;14.452;2023-07-20T12:09:18;45.67;;;41.97;;
43114;SDS011;28727;50.068;14.452;2023-07-20T12:11:52;48.25;;;44.15;;
43114;SDS011;28727;50.068;14.452;2023-07-20T12:14:27;48.92;;;44.78;;
43114;SDS011;28727;50.068;14.452;2023-07-20T12:16:59;50.10;;;45.90;;
43114;SDS011;28727;50.068;14.452;2023-07-20T12:19:31;48.70;;;44.30;;
43114;SDS011;28727;50.068;14.452;2023-07-20T12:22:05;47.42;;;43.55;;
43114;SDS011;28727;50.068;14.452;2023-07-20T12:24:40;41.45;;;37.88;;
43114;SDS011;28727;50.068;14.452;2023-07-20T12:27:13;39.65;;;36.55;;
43114;SDS011;28727;50.068;14.452;2023-07-20T12:29:49;45.67;;;41.92;;
43114;SDS011;28727;50.068;14.452;2023-07-20T12:32:24;43.53;;;39.80;;
43114;SDS011;28727;50.068;14.452;2023-07-20T12:34:56;42.60;;;39.00;;
43114;SDS011;28727;50.068;14.452;2023-07-20T12:37:28;40.40;;;37.10;;
43114;SDS011;28727;50.068;14.452;2023-07-20T12:40:03;38.08;;;34.80;;
43114;SDS011;28727;50.068;14.452;2023-07-20T12:42:37;33.80;;;31.02;;
43114;SDS011;28727;50.068;14.452;2023-07-20T12:45:13;34.67;;;31.95;;
43114;SDS011;28727;50.068;14.452;2023-07-20T12:47:50;46.10;;;42.15;;
43114;SDS011;28727;50.068;14.452;2023-07-20T12:50:22;49.72;;;45.63;;
43114;SDS011;28727;50.068;14.452;2023-07-20T12:52:54;44.42;;;40.95;;
43114;SDS011;28727;50.068;14.452;2023-07-20T12:55:25;43.90;;;40.08;;
43114;SDS011;28727;50.068;14.452;2023-07-20T12:58:08;40.70;;;37.13;;
43114;SDS011;28727;50.068;14.452;2023-07-20T13:00:42;40.55;;;37.42;;
43114;SDS011;28727;50.068;14.452;2023-07-20T13:03:17;41.08;;;37.80;;
43114;SDS011;28727;50.068;14.452;2023-07-20T13:05:56;40.78;;;37.65;;
43114;SDS011;28727;50.068;14.452;2023-07-20T13:08:34;42.78;;;39.25;;
43114;SDS011;28727;50.068;14.452;2023-07-20T13:11:07;41.88;;;38.58;;
43114;SDS011;28727;50.068;14.452;2023-07-20T13:13:39;35.55;;;32.58;;
43114;SDS011;28727;50.068;14.452;2023-07-20T13:16:21;41.33;;;37.70;;
43114;SDS011;28727;50.068;14.452;2023-07-20T13:18:56;36.47;;;33.58;;
43114;SDS011;28727;50.068;14.452;2023-07-20T13:21:29;35.63;;;32.63;;
43114;SDS011;28727;50.068;14.452;2023-07-20T13:24:01;37.92;;;34.85;;
43114;SDS011;28727;50.068;14.452;2023-07-20T13:26:35;35.38;;;32.50;;
43114;SDS011;28727;50.068;14.452;2023-07-20T13:29:07;26.65;;;24.67;;
43114;SDS011;28727;50.068;14.452;2023-07-20T13:31:41;33.88;;;30.92;;
43114;SDS011;28727;50.068;14.452;2023-07-20T13:34:14;38.72;;;35.17;;
43114;SDS011;28727;50.068;14.452;2023-07-20T13:36:53;32.85;;;30.35;;
43114;SDS011;28727;50.068;14.452;2023-07-20T13:39:25;33.17;;;30.38;;
43114;SDS011;28727;50.068;14.452;2023-07-20T13:41:58;40.67;;;37.20;;
43114;SDS011;28727;50.068;14.452;2023-07-20T13:44:35;35.25;;;32.40;;
43114;SDS011;28727;50.068;14.452;2023-07-20T13:47:07;35.42;;;32.58;;
43114;SDS011;28727;50.068;14.452;2023-07-20T13:49:45;43.55;;;40.15;;
43114;SDS011;28727;50.068;14.452;2023-07-20T13:52:18;36.40;;;33.65;;
43114;SDS011;28727;50.068;14.452;2023-07-20T13:54:53;39.20;;;36.10;;
43114;SDS011;28727;50.068;14.452;2023-07-20T13:57:26;40.25;;;37.08;;
43114;SDS011;28727;50.068;14.452;2023-07-20T13:59:58;38.67;;;35.58;;
43114;SDS011;28727;50.068;14.452;2023-07-20T14:02:42;40.58;;;37.20;;
43114;SDS011;28727;50.068;14.452;2023-07-20T14:05:23;42.53;;;38.97;;
43114;SDS011;28727;50.068;14.452;2023-07-20T14:08:00;45.90;;;41.92;;
43114;SDS011;28727;50.068;14.452;2023-07-20T14:10:36;41.88;;;38.50;;
43114;SDS011;28727;50.068;14.452;2023-07-20T14:13:29;48.40;;;44.10;;
43114;SDS011;28727;50.068;14.452;2023-07-20T14:16:23;49.97;;;45.88;;
43114;SDS011;28727;50.068;14.452;2023-07-20T14:18:59;44.53;;;40.90;;
43114;SDS011;28727;50.068;14.452;2023-07-20T14:21:31;50.58;;;45.63;;
43114;SDS011;28727;50.068;14.452;2023-07-20T14:24:08;44.35;;;40.75;;
43114;SDS011;28727;50.068;14.452;2023-07-20T14:26:40;43.10;;;39.28;;
43114;SDS011;28727;50.068;14.452;2023-07-20T14:29:14;37.88;;;34.85;;
43114;SDS011;28727;50.068;14.452;2023-07-20T14:31:47;38.55;;;35.55;;
43114;SDS011;28727;50.068;14.452;2023-07-20T14:34:25;50.53;;;46.05;;
43114;SDS011;28727;50.068;14.452;2023-07-20T14:36:58;45.00;;;41.20;;
43114;SDS011;28727;50.068;14.452;2023-07-20T14:39:31;45.05;;;41.15;;
43114;SDS011;28727;50.068;14.452;2023-07-20T14:42:03;40.25;;;36.90;;
43114;SDS011;28727;50.068;14.452;2023-07-20T14:44:35;45.40;;;41.42;;
43114;SDS011;28727;50.068;14.452;2023-07-20T14:47:10;43.15;;;39.50;;
43114;SDS011;28727;50.068;14.452;2023-07-20T14:49:46;47.00;;;42.65;;
43114;SDS011;28727;50.068;14.452;2023-07-20T14:52:21;51.38;;;46.72;;
43114;SDS011;28727;50.068;14.452;2023-07-20T14:54:54;40.90;;;37.45;;
43114;SDS011;28727;50.068;14.452;2023-07-20T14:57:25;40.95;;;37.15;;
43114;SDS011;28727;50.068;14.452;2023-07-20T15:00:00;40.60;;;36.97;;
43114;SDS011;28727;50.068;14.452;2023-07-20T15:02:39;44.53;;;40.17;;
43114;SDS011;28727;50.068;14.452;2023-07-20T15:05:12;41.27;;;37.73;;
43114;SDS011;28727;50.068;14.452;2023-07-20T15:07:53;43.60;;;39.60;;
43114;SDS011;28727;50.068;14.452;2023-07-20T15:10:25;39.00;;;35.60;;
43114;SDS011;28727;50.068;14.452;2023-07-20T15:13:03;30.08;;;27.67;;
43114;SDS011;28727;50.068;14.452;2023-07-20T15:15:38;31.75;;;29.05;;
43114;SDS011;28727;50.068;14.452;2023-07-20T15:18:10;37.42;;;34.00;;
43114;SDS011;28727;50.068;14.452;2023-07-20T15:20:42;27.95;;;25.45;;
43114;SDS011;28727;50.068;14.452;2023-07-20T15:23:17;34.53;;;31.73;;